Time;durP1;ratioP1;P1;durP2;ratioP2;P2;SDS_P1;SDS_P2;PMS_P1;PMS_P2;Temp;Humidity;BMP_temperature;BMP_pressure;BME280_temperature;BME280_humidity;BME280_pressure;Samples;Min_cycle;Max_cycle;Signal;HPM_P1;HPM_P2
2024/03/04 01:19:09;;;;;;;20.93;12.97;;;5.10;99.90;;;;;;6074427;23;20605;-87
2024/03/04 01:43:51;;;;;;;19.03;13.10;;;4.90;99.90;;;;;;5877287;24;20214;-88
2024/03/04 02:09:49;;;;;;;22.50;14.27;;;4.70;99.90;;;;;;5843943;24;20380;-88
2024/03/04 02:29:38;;;;;;;20.63;13.33;;;4.80;99.90;;;;;;5451007;25;20603;-88
2024/03/04 02:55:22;;;;;;;23.37;14.40;;;4.90;99.90;;;;;;5551834;25;20600;-86
2024/03/04 03:25:58;;;;;;;22.50;13.87;;;5.00;99.90;;;;;;5874470;24;20737;-86
2024/03/04 03:30:18;;;;;;;20.93;14.03;;;5.00;99.90;;;;;;5746372;24;20569;-88
2024/03/04 03:51:13;;;;;;;22.93;14.07;;;5.00;99.90;;;;;;5812921;24;20280;-86
2024/03/04 04:16:06;;;;;;;22.93;14.17;;;5.10;99.90;;;;;;5679229;24;20189;-85
2024/03/04 04:51:46;;;;;;;23.80;14.37;;;5.30;99.90;;;;;;5634001;24;20397;-86
2024/03/04 05:12:23;;;;;;;23.07;14.77;;;5.40;99.90;;;;;;5683438;24;20189;-85
2024/03/04 05:47:51;;;;;;;23.77;15.07;;;5.60;99.90;;;;;;5746493;24;20204;-87
2024/03/04 06:17:43;;;;;;;20.83;16.10;;;5.60;99.90;;;;;;5676245;24;20647;-86
2024/03/04 06:38:30;;;;;;;25.30;14.97;;;5.60;99.90;;;;;;5796515;24;20215;-88
2024/03/04 06:58:51;;;;;;;23.97;16.30;;;5.70;99.90;;;;;;5845524;24;20211;-84
2024/03/04 07:23:37;;;;;;;27.47;17.40;;;6.10;99.90;;;;;;5681658;24;20532;-85
2024/03/04 07:44:27;;;;;;;29.57;16.23;;;6.10;99.90;;;;;;5762616;24;20609;-84
2024/03/04 08:04:45;;;;;;;24.97;18.03;;;6.40;99.90;;;;;;5679464;24;20202;-84
2024/03/04 08:34:37;;;;;;;24.13;16.43;;;6.30;99.90;;;;;;5802969;24;20243;-86
2024/03/04 08:50:35;;;;;;;26.73;14.63;;;6.30;99.90;;;;;;5847340;24;20215;-86
2024/03/04 08:54:55;;;;;;;20.73;15.37;;;6.30;99.90;;;;;;5743252;24;20467;-85
2024/03/04 09:15:41;;;;;;;23.67;14.37;;;6.50;99.90;;;;;;5788896;24;20288;-86
2024/03/04 09:36:03;;;;;;;25.33;17.73;;;6.70;99.90;;;;;;5689981;24;20980;-88
2024/03/04 09:56:29;;;;;;;17.57;13.17;;;7.20;99.90;;;;;;5664457;24;20244;-82
2024/03/04 10:16:40;;;;;;;20.47;14.70;;;7.60;99.90;;;;;;5565973;25;20718;-84
2024/03/04 10:41:43;;;;;;;20.57;13.67;;;7.10;99.90;;;;;;5550377;24;21096;-86
2024/03/04 11:02:12;;;;;;;34.37;22.80;;;7.20;99.90;;;;;;5596817;24;20942;-83
2024/03/04 11:32:26;;;;;;;29.70;19.53;;;7.50;99.90;;;;;;5586829;24;20651;-85
2024/03/04 11:58:04;;;;;;;33.73;19.73;;;7.60;99.90;;;;;;5610967;24;20711;-84
2024/03/04 12:18:20;;;;;;;22.03;16.43;;;8.00;99.90;;;;;;5737510;24;20245;-87
2024/03/04 13:02:47;;;;;;;28.90;20.63;;;7.70;99.90;;;;;;5911800;24;20241;-85
2024/03/04 13:22:54;;;;;;;22.30;17.13;;;7.70;99.90;;;;;;5749697;24;20288;-86
2024/03/04 14:39:11;;;;;;;26.43;16.00;;;6.70;99.90;;;;;;5686252;24;20231;-85
2024/03/04 14:43:33;;;;;;;29.80;19.13;;;6.70;99.90;;;;;;5754627;24;21221;-85
2024/03/04 15:04:16;;;;;;;16.87;12.40;;;6.50;99.90;;;;;;5918708;23;20584;-84
2024/03/04 15:24:49;;;;;;;28.33;20.67;;;6.30;99.90;;;;;;5694429;24;20245;-82
2024/03/04 16:20:27;;;;;;;19.63;13.77;;;5.80;99.90;;;;;;5682357;24;20180;-86
2024/03/04 16:50:21;;;;;;;21.97;14.43;;;5.60;99.90;;;;;;5685064;24;20635;-87
2024/03/04 18:57:06;;;;;;;37.50;23.43;;;4.80;99.90;;;;;;5704111;24;20406;-86
2024/03/04 19:18:05;;;;;;;39.67;21.90;;;4.60;99.90;;;;;;5775110;24;20609;-86
2024/03/04 19:43:32;;;;;;;38.90;22.87;;;4.30;99.90;;;;;;5920924;23;20209;-88
2024/03/04 19:47:50;;;;;;;37.53;22.37;;;4.30;99.90;;;;;;5864243;24;20214;-86
2024/03/04 20:18:15;;;;;;;37.30;23.47;;;4.10;99.90;;;;;;5882081;23;20484;-89
2024/03/04 20:34:08;;;;;;;38.87;25.10;;;4.00;99.90;;;;;;5741096;24;20360;-88
2024/03/04 21:29:55;;;;;;;33.97;19.97;;;4.00;99.90;;;;;;5763724;24;20615;-88
2024/03/04 21:55:03;;;;;;;26.50;16.97;;;3.80;99.90;;;;;;5797469;24;20635;-87
2024/03/04 22:45:43;;;;;;;18.10;10.33;;;3.70;99.90;;;;;;5933144;23;20168;-87
2024/03/04 23:10:57;;;;;;;27.63;17.80;;;3.60;99.90;;;;;;5633045;24;20636;-88
2024/03/04 23:41:47;;;;;;;21.50;12.73;;;3.60;99.90;;;;;;5651204;24;20184;-88
